Cape Bradley — V7FK7 — position and weather

sailwx.info

Track history (hours):
 
Tides and Currents Weather Stations Pressure Air Temp Water Temp Dewpoint Dewpoint Depression Visibility Wind Speed Wind Dir Waves Ship Positions

Cape Bradley

Last reported at 2018-Apr-21 15:30 UTC. Time now 2018-Apr-21 15:35 UTC.
Position N 53°32' E 009°55'.

Length 176 m; draft 10.2 m.

Type: Tanker. MMSI: 538001963.

Date/timePositionNaut miles runAvg speedWind from/ knotsBaromVisibWave heightAir tempDewpointWater temp
2018-Apr-21 15:30N 53°32' E 009°55'5 9.6
2018-Apr-21 15:00N 53°33' E 009°47'611.2
2018-Apr-21 14:30N 53°35' E 009°38'611.5
2018-Apr-21 14:00N 53°39' E 009°31'713.1
2018-Apr-21 13:30N 53°44' E 009°26'712.9
2018-Apr-21 13:00N 53°50' E 009°21'612.4
2018-Apr-21 12:30N 53°53' E 009°11'4 8.2
2018-Apr-21 12:00N 53°52' E 009°04'5 9.6
2018-Apr-21 11:31N 53°51' E 008°57'510.1
2018-Apr-21 11:00N 53°50' E 008°48'5 9.2
2018-Apr-21 10:30N 53°53' E 008°42'5 9.6
2018-Apr-21 10:00N 53°57' E 008°37'510.8
2018-Apr-21 09:30N 53°58' E 008°28'610.9
2018-Apr-21 09:00N 53°59' E 008°19'613.1
2018-Apr-21 08:30N 53°59' E 008°08'5 9.4
2018-Apr-21 08:00N 54°00' E 008°00'3 6.7
2018-Apr-21 07:30N 54°02' E 007°55'3 5.6
2018-Apr-21 06:57N 54°04' E 007°51'4 8.2
2018-Apr-21 06:30N 54°05' E 007°45'1 2.3
2018-Apr-21 05:59N 54°05' E 007°43'0 0.0
2018-Apr-21 05:29N 54°05' E 007°43'0 0.1
2018-Apr-21 04:59N 54°05' E 007°43'0 0.1
2018-Apr-21 02:52N 54°05' E 007°44'0 0.0
2018-Apr-21 02:26N 54°05' E 007°44'0 0.0
2018-Apr-21 01:59N 54°05' E 007°44'1 0.8
2018-Apr-21 01:15N 54°05' E 007°43'2 6.3
2018-Apr-21 00:53N 54°06' E 007°40'512.5
2018-Apr-21 00:28N 54°09' E 007°32'814.1
2018-Apr-20 23:52N 54°09' E 007°18'914.5
2018-Apr-20 23:17N 54°09' E 007°03'714.4
2018-Apr-20 22:48N 54°09' E 006°51'1714.2
2018-Apr-20 21:35N 54°08' E 006°22'213.9
2018-Apr-20 21:25N 54°08' E 006°18'7412.2
2018-Apr-20 15:24N 53°45' E 004°20'4511.9
2018-Apr-20 11:40N 53°11' E 003°31'212.1
2018-Apr-20 11:30N 53°09' E 003°30'812.0
2018-Apr-20 10:49N 53°02' E 003°25'412.0
2018-Apr-20 10:30N 52°58' E 003°23'712.2
2018-Apr-20 09:58N 52°52' E 003°18'612.6
2018-Apr-20 09:30N 52°47' E 003°14'1413.2
2018-Apr-20 08:25N 52°34' E 003°03'2814.3
2018-Apr-20 06:29N 52°10' E 002°42'814.9
2018-Apr-20 05:58N 52°03' E 002°40'915.0
2018-Apr-20 05:21N 51°53' E 002°39'713.8
2018-Apr-20 04:51N 51°46' E 002°38'813.9
2018-Apr-20 04:15N 51°39' E 002°43'414.9
2018-Apr-20 04:00N 51°35' E 002°43'714.4
2018-Apr-20 03:30N 51°28' E 002°42'5 9.0
2018-Apr-20 02:59N 51°24' E 002°45'510.0
2018-Apr-20 02:30N 51°25' E 002°53'611.1
2018-Apr-20 02:00N 51°25' E 003°02'510.5
2018-Apr-20 01:30N 51°24' E 003°10'510.8
2018-Apr-20 01:00N 51°25' E 003°19'611.1
2018-Apr-20 00:30N 51°25' E 003°27'510.3
2018-Apr-20 00:00N 51°26' E 003°36'4 8.7
2018-Apr-19 23:30N 51°25' E 003°42'510.5
2018-Apr-19 23:00N 51°21' E 003°48'611.5
2018-Apr-19 22:30N 51°23' E 003°57'4 7.8
2018-Apr-19 22:00N 51°25' E 004°02'510.0
2018-Apr-19 21:30N 51°23' E 004°10'4 8.8
2018-Apr-19 21:00N 51°21' E 004°16'1 1.9
2018-Apr-19 20:30N 51°21' E 004°17'0 0.0
2018-Apr-19 20:00N 51°21' E 004°17'0 0.0
2018-Apr-19 19:30N 51°21' E 004°17'0 0.2
2018-Apr-19 19:00N 51°21' E 004°17'1 2.4
2018-Apr-19 18:30N 51°20' E 004°18'0 0.3
2018-Apr-19 17:52N 51°20' E 004°18'0 0.0
2018-Apr-19 16:58N 51°20' E 004°18'0 0.0
2018-Apr-19 15:34N 51°20' E 004°18'0 0.0
2018-Apr-19 10:37N 51°20' E 004°18'0 0.0
2018-Apr-18 16:04N 51°20' E 004°18'0 0.0
2018-Apr-18 15:37N 51°20' E 004°18'0 0.0
2018-Apr-18 15:16N 51°20' E 004°18'0 0.0
2018-Apr-18 14:19N 51°20' E 004°18'0 0.0
2018-Apr-18 13:52N 51°20' E 004°18'0 0.0
2018-Apr-18 13:13N 51°20' E 004°18'0 0.0
2018-Apr-18 12:49N 51°20' E 004°18'0 0.0
2018-Apr-18 12:25N 51°20' E 004°18'0 0.0
2018-Apr-18 11:55N 51°20' E 004°18'0 0.0
2018-Apr-18 11:25N 51°20' E 004°18'0 0.0
2018-Apr-18 10:55N 51°20' E 004°18'0 0.0
2018-Apr-18 10:10N 51°20' E 004°18'0 0.0
2018-Apr-18 04:31N 51°20' E 004°18'0 0.0
2018-Apr-18 04:16N 51°20' E 004°18'0 0.0
2018-Apr-18 04:00N 51°20' E 004°18'1 1.2
2018-Apr-18 03:30N 51°20' E 004°18'1 1.7
2018-Apr-18 03:01N 51°21' E 004°17'0 0.0
2018-Apr-18 02:30N 51°21' E 004°17'2 3.1
2018-Apr-18 02:00N 51°21' E 004°15'4 7.1
2018-Apr-18 01:30N 51°24' E 004°11'510.3
2018-Apr-18 01:00N 51°23' E 004°03'4 7.5
2018-Apr-18 00:30N 51°24' E 003°57'713.3
2018-Apr-18 00:00N 51°21' E 003°48'612.6
2018-Apr-17 23:30N 51°26' E 003°42'510.2
2018-Apr-17 23:00N 51°27' E 003°34'713.2
2018-Apr-17 22:30N 51°31' E 003°26'611.8
2018-Apr-17 22:00N 51°36' E 003°22'612.5
2018-Apr-17 21:30N 51°41' E 003°15'510.1
2018-Apr-17 20:59N 51°46' E 003°19'1 1.2
2018-Apr-17 20:29N 51°47' E 003°19'0 0.0
2018-Apr-17 19:59N 51°47' E 003°19'0 0.1
2018-Apr-17 19:29N 51°47' E 003°19'0 0.2
2018-Apr-17 18:59N 51°47' E 003°19'0 0.1
2018-Apr-17 18:29N 51°47' E 003°19'0 0.0
2018-Apr-17 16:38N 51°47' E 003°19'0 0.0
2018-Apr-17 16:11N 51°47' E 003°19'0 0.0
2018-Apr-17 15:53N 51°47' E 003°19'0 0.0
2018-Apr-17 15:26N 51°47' E 003°19'0 0.0
2018-Apr-17 14:56N 51°47' E 003°19'0 0.0
2018-Apr-17 14:29N 51°47' E 003°19'0 0.0
2018-Apr-17 13:59N 51°47' E 003°19'0 0.0
2018-Apr-17 13:29N 51°47' E 003°19'0 0.0
2018-Apr-17 12:56N 51°47' E 003°19'0 0.2
2018-Apr-17 12:05N 51°47' E 003°19'0 0.1
2018-Apr-17 11:59N 51°46' E 003°19'0 0.0
2018-Apr-17 07:38N 51°47' E 003°19'0 0.1
2018-Apr-17 07:26N 51°47' E 003°19'0 0.1
2018-Apr-17 06:47N 51°47' E 003°19'0 0.1
2018-Apr-17 06:29N 51°47' E 003°19'0 0.0
2018-Apr-17 05:53N 51°47' E 003°19'0 0.0
2018-Apr-17 05:26N 51°47' E 003°19'0 0.1
2018-Apr-17 04:59N 51°47' E 003°19'0 0.0
2018-Apr-17 04:29N 51°47' E 003°19'0 0.0
2018-Apr-17 03:56N 51°47' E 003°19'0 0.0
2018-Apr-17 03:29N 51°47' E 003°19'0 0.0
2018-Apr-17 02:41N 51°47' E 003°19'0 0.0
2018-Apr-17 02:29N 51°47' E 003°19'0 0.0
2018-Apr-17 01:59N 51°47' E 003°19'0 0.0
2018-Apr-17 01:29N 51°47' E 003°19'0 0.1
2018-Apr-17 00:59N 51°47' E 003°19'0 0.0
2018-Apr-17 00:29N 51°47' E 003°19'0 0.2
2018-Apr-16 23:59N 51°47' E 003°19'0 0.2
2018-Apr-16 23:26N 51°46' E 003°19'0 0.0
2018-Apr-16 18:56N 51°47' E 003°19'0 0.1
2018-Apr-16 18:17N 51°47' E 003°19'0 0.0
2018-Apr-16 17:59N 51°47' E 003°19'0 0.0
2018-Apr-16 17:26N 51°47' E 003°19'0 0.0
2018-Apr-16 15:32N 51°47' E 003°19'0 0.0
2018-Apr-16 15:26N 51°47' E 003°19'0 0.0
2018-Apr-16 14:41N 51°47' E 003°19'0 0.0
2018-Apr-16 14:26N 51°47' E 003°19'0 0.0
2018-Apr-16 13:53N 51°47' E 003°19'0 0.0
2018-Apr-16 13:26N 51°47' E 003°19'0 0.0
2018-Apr-16 12:59N 51°47' E 003°19'0 0.0
2018-Apr-16 12:29N 51°47' E 003°19'0 0.0
2018-Apr-16 06:59N 51°47' E 003°19'0 0.1
2018-Apr-16 06:23N 51°47' E 003°19'0 0.0
2018-Apr-16 05:56N 51°47' E 003°19'0 0.0
2018-Apr-16 05:26N 51°47' E 003°19'0 0.0
2018-Apr-16 04:59N 51°47' E 003°19'0 0.0
2018-Apr-16 03:38N 51°47' E 003°19'0 0.0
2018-Apr-16 03:23N 51°47' E 003°19'0 0.0
2018-Apr-16 01:41N 51°47' E 003°19'0 0.0
2018-Apr-16 01:14N 51°47' E 003°19'0 0.0
2018-Apr-16 00:47N 51°47' E 003°19'0 0.0
2018-Apr-16 00:26N 51°47' E 003°19'0 0.2
2018-Apr-15 22:53N 51°47' E 003°19'0 0.0
2018-Apr-15 20:53N 51°46' E 003°19'0 0.0
2018-Apr-15 19:29N 51°47' E 003°19'0 0.0
2018-Apr-15 18:35N 51°47' E 003°19'0 0.1
2018-Apr-15 18:11N 51°47' E 003°19'0 0.0
2018-Apr-15 17:41N 51°47' E 003°19'0 0.1
2018-Apr-15 17:29N 51°47' E 003°19'0 0.1
2018-Apr-15 16:47N 51°47' E 003°19'0 0.1
2018-Apr-15 15:13N 51°47' E 003°19'0 0.0
2018-Apr-15 15:00N 51°47' E 003°19'0 0.0
2018-Apr-15 14:28N 51°47' E 003°19'0 0.0
2018-Apr-15 13:59N 51°47' E 003°19'0 0.0
2018-Apr-15 13:29N 51°47' E 003°19'0 0.0
2018-Apr-15 12:59N 51°47' E 003°19'0 0.0
2018-Apr-15 12:29N 51°47' E 003°19'0 0.0
2018-Apr-15 11:59N 51°47' E 003°19'0 0.1
2018-Apr-15 11:26N 51°47' E 003°19'0 0.3
2018-Apr-15 10:59N 51°47' E 003°19'0 0.1
2018-Apr-15 10:29N 51°46' E 003°19'0 0.0
2018-Apr-15 09:56N 51°46' E 003°19'0 0.0
2018-Apr-15 09:23N 51°46' E 003°19'0 0.0
2018-Apr-15 08:35N 51°46' E 003°19'0 0.0
2018-Apr-15 08:29N 51°46' E 003°19'0 0.0
2018-Apr-15 07:56N 51°47' E 003°19'0 0.0
2018-Apr-15 06:50N 51°47' E 003°19'0 0.0
2018-Apr-15 06:27N 51°47' E 003°19'0 0.1
2018-Apr-15 05:59N 51°47' E 003°19'0 0.1
2018-Apr-15 04:59N 51°47' E 003°19'0 0.1
2018-Apr-15 04:26N 51°47' E 003°19'0 0.1
2018-Apr-15 03:59N 51°47' E 003°19'0 0.1
2018-Apr-15 03:29N 51°47' E 003°19'0 0.0
2018-Apr-15 02:44N 51°47' E 003°19'0 0.0
2018-Apr-15 02:29N 51°47' E 003°19'0 0.0
2018-Apr-15 01:59N 51°47' E 003°19'0 0.0
2018-Apr-15 01:29N 51°47' E 003°19'0 0.0
2018-Apr-15 00:50N 51°47' E 003°19'0 0.0
2018-Apr-15 00:29N 51°47' E 003°19'0 0.1
2018-Apr-14 23:56N 51°47' E 003°19'0 0.3
2018-Apr-14 23:23N 51°46' E 003°19'0 0.1
2018-Apr-14 21:56N 51°46' E 003°19'0 0.0
2018-Apr-14 21:26N 51°46' E 003°19'0 0.0
2018-Apr-14 18:47N 51°46' E 003°19'0 0.0
2018-Apr-14 18:29N 51°46' E 003°19'0 0.0
2018-Apr-14 17:56N 51°46' E 003°19'0 0.0
2018-Apr-14 17:26N 51°46' E 003°19'0 0.1
2018-Apr-14 15:56N 51°47' E 003°19'0 0.1
2018-Apr-14 15:20N 51°47' E 003°19'0 0.0
2018-Apr-14 14:53N 51°47' E 003°19'0 0.0
2018-Apr-14 13:41N 51°47' E 003°19'0 0.0
2018-Apr-14 13:11N 51°47' E 003°19'0 0.0
2018-Apr-14 12:53N 51°47' E 003°19'0 0.0
2018-Apr-14 12:11N 51°47' E 003°19'0 0.0
2018-Apr-14 11:56N 51°47' E 003°19'0 0.1
2018-Apr-14 11:29N 51°47' E 003°19'0 0.1
2018-Apr-14 10:53N 51°47' E 003°19'0 0.1
2018-Apr-14 08:29N 51°46' E 003°19'0 0.0
2018-Apr-14 07:59N 51°46' E 003°19'0 0.0
2018-Apr-14 07:29N 51°46' E 003°19'0 0.0
2018-Apr-14 06:53N 51°46' E 003°19'0 0.0
2018-Apr-14 06:11N 51°46' E 003°19'0 0.0
2018-Apr-14 05:44N 51°46' E 003°19'0 0.0
2018-Apr-14 05:08N 51°46' E 003°19'0 0.3
2018-Apr-14 04:47N 51°47' E 003°19'0 0.1
2018-Apr-14 03:53N 51°47' E 003°19'0 0.0
2018-Apr-14 03:23N 51°47' E 003°19'0 0.0
2018-Apr-14 02:59N 51°47' E 003°19'0 0.0
2018-Apr-14 02:26N 51°47' E 003°19'0 0.0
2018-Apr-14 01:59N 51°47' E 003°19'0 0.0
2018-Apr-14 00:32N 51°47' E 003°19'0 0.0
2018-Apr-14 00:14N 51°47' E 003°19'0 0.0
2018-Apr-13 23:59N 51°47' E 003°19'0 0.0
2018-Apr-13 23:29N 51°47' E 003°19'0 0.0
2018-Apr-13 22:56N 51°47' E 003°19'0 0.1
2018-Apr-13 21:20N 51°46' E 003°19'0 0.1
2018-Apr-13 20:35N 51°46' E 003°19'0 0.0
2018-Apr-13 20:05N 51°46' E 003°19'0 0.0
2018-Apr-13 19:53N 51°46' E 003°19'0 0.0
2018-Apr-13 19:17N 51°46' E 003°19'0 0.0
2018-Apr-13 18:56N 51°46' E 003°19'0 0.0
2018-Apr-13 18:27N 51°46' E 003°19'0 0.0
2018-Apr-13 18:00N 51°46' E 003°19'1 1.4
2018-Apr-13 17:26N 51°46' E 003°18'3 6.6
2018-Apr-13 16:59N 51°43' E 003°17'612.2
2018-Apr-13 16:30N 51°38' E 003°21'713.4
2018-Apr-13 16:00N 51°32' E 003°26'713.4
2018-Apr-13 15:30N 51°27' E 003°33'4 8.5
2018-Apr-13 15:01N 51°27' E 003°40'713.3
2018-Apr-13 14:31N 51°21' E 003°47'713.2
2018-Apr-13 14:00N 51°23' E 003°57'4 7.1
2018-Apr-13 13:30N 51°24' E 004°02'5 9.4
2018-Apr-13 13:00N 51°23' E 004°09'4 8.3
2018-Apr-13 12:30N 51°21' E 004°15'1 2.5
2018-Apr-13 12:00N 51°21' E 004°17'0 0.0
2018-Apr-13 11:30N 51°21' E 004°17'0 0.0
2018-Apr-13 11:00N 51°21' E 004°17'1 1.1
2018-Apr-13 10:30N 51°20' E 004°18'3 6.1
2018-Apr-13 10:00N 51°18' E 004°20'0 0.0
2018-Apr-13 00:15N 51°18' E 004°20'0 0.0
2018-Apr-12 21:03N 51°18' E 004°20'0 0.0
2018-Apr-12 18:24N 51°18' E 004°20'  
Track history (hours):
 
Tides and Currents Weather Stations Pressure Air Temp Water Temp Dewpoint Dewpoint Depression Visibility Wind Speed Wind Dir Waves Ship Positions

Cape Bradley

Last reported at 2018-Apr-21 15:30 UTC. Time now 2018-Apr-21 15:35 UTC.
Position N 53°32' E 009°55'.

Length 176 m; draft 10.2 m.

Type: Tanker. MMSI: 538001963.

Date/timePositionNaut miles runAvg speedWind from/ knotsBaromVisibWave heightAir tempDewpointWater temp
2018-Apr-21 15:30N 53°32' E 009°55'5 9.6
2018-Apr-21 15:00N 53°33' E 009°47'611.2
2018-Apr-21 14:30N 53°35' E 009°38'611.5
2018-Apr-21 14:00N 53°39' E 009°31'713.1
2018-Apr-21 13:30N 53°44' E 009°26'712.9
2018-Apr-21 13:00N 53°50' E 009°21'612.4
2018-Apr-21 12:30N 53°53' E 009°11'4 8.2
2018-Apr-21 12:00N 53°52' E 009°04'5 9.6
2018-Apr-21 11:31N 53°51' E 008°57'510.1
2018-Apr-21 11:00N 53°50' E 008°48'5 9.2
2018-Apr-21 10:30N 53°53' E 008°42'5 9.6
2018-Apr-21 10:00N 53°57' E 008°37'510.8
2018-Apr-21 09:30N 53°58' E 008°28'610.9
2018-Apr-21 09:00N 53°59' E 008°19'613.1
2018-Apr-21 08:30N 53°59' E 008°08'5 9.4
2018-Apr-21 08:00N 54°00' E 008°00'3 6.7
2018-Apr-21 07:30N 54°02' E 007°55'3 5.6
2018-Apr-21 06:57N 54°04' E 007°51'4 8.2
2018-Apr-21 06:30N 54°05' E 007°45'1 2.3
2018-Apr-21 05:59N 54°05' E 007°43'0 0.0
2018-Apr-21 05:29N 54°05' E 007°43'0 0.1
2018-Apr-21 04:59N 54°05' E 007°43'0 0.1
2018-Apr-21 02:52N 54°05' E 007°44'0 0.0
2018-Apr-21 02:26N 54°05' E 007°44'0 0.0
2018-Apr-21 01:59N 54°05' E 007°44'1 0.8
2018-Apr-21 01:15N 54°05' E 007°43'2 6.3
2018-Apr-21 00:53N 54°06' E 007°40'512.5
2018-Apr-21 00:28N 54°09' E 007°32'814.1
2018-Apr-20 23:52N 54°09' E 007°18'914.5
2018-Apr-20 23:17N 54°09' E 007°03'714.4
2018-Apr-20 22:48N 54°09' E 006°51'1714.2
2018-Apr-20 21:35N 54°08' E 006°22'213.9
2018-Apr-20 21:25N 54°08' E 006°18'7412.2
2018-Apr-20 15:24N 53°45' E 004°20'4511.9
2018-Apr-20 11:40N 53°11' E 003°31'212.1
2018-Apr-20 11:30N 53°09' E 003°30'812.0
2018-Apr-20 10:49N 53°02' E 003°25'412.0
2018-Apr-20 10:30N 52°58' E 003°23'712.2
2018-Apr-20 09:58N 52°52' E 003°18'612.6
2018-Apr-20 09:30N 52°47' E 003°14'1413.2
2018-Apr-20 08:25N 52°34' E 003°03'2814.3
2018-Apr-20 06:29N 52°10' E 002°42'814.9
2018-Apr-20 05:58N 52°03' E 002°40'915.0
2018-Apr-20 05:21N 51°53' E 002°39'713.8
2018-Apr-20 04:51N 51°46' E 002°38'813.9
2018-Apr-20 04:15N 51°39' E 002°43'414.9
2018-Apr-20 04:00N 51°35' E 002°43'714.4
2018-Apr-20 03:30N 51°28' E 002°42'5 9.0
2018-Apr-20 02:59N 51°24' E 002°45'510.0
2018-Apr-20 02:30N 51°25' E 002°53'611.1
2018-Apr-20 02:00N 51°25' E 003°02'510.5
2018-Apr-20 01:30N 51°24' E 003°10'510.8
2018-Apr-20 01:00N 51°25' E 003°19'611.1
2018-Apr-20 00:30N 51°25' E 003°27'510.3
2018-Apr-20 00:00N 51°26' E 003°36'4 8.7
2018-Apr-19 23:30N 51°25' E 003°42'510.5
2018-Apr-19 23:00N 51°21' E 003°48'611.5
2018-Apr-19 22:30N 51°23' E 003°57'4 7.8
2018-Apr-19 22:00N 51°25' E 004°02'510.0
2018-Apr-19 21:30N 51°23' E 004°10'4 8.8
2018-Apr-19 21:00N 51°21' E 004°16'1 1.9
2018-Apr-19 20:30N 51°21' E 004°17'0 0.0
2018-Apr-19 20:00N 51°21' E 004°17'0 0.0
2018-Apr-19 19:30N 51°21' E 004°17'0 0.2
2018-Apr-19 19:00N 51°21' E 004°17'1 2.4
2018-Apr-19 18:30N 51°20' E 004°18'0 0.3
2018-Apr-19 17:52N 51°20' E 004°18'0 0.0
2018-Apr-19 16:58N 51°20' E 004°18'0 0.0
2018-Apr-19 15:34N 51°20' E 004°18'0 0.0
2018-Apr-19 10:37N 51°20' E 004°18'0 0.0
2018-Apr-18 16:04N 51°20' E 004°18'0 0.0
2018-Apr-18 15:37N 51°20' E 004°18'0 0.0
2018-Apr-18 15:16N 51°20' E 004°18'0 0.0
2018-Apr-18 14:19N 51°20' E 004°18'0 0.0
2018-Apr-18 13:52N 51°20' E 004°18'0 0.0
2018-Apr-18 13:13N 51°20' E 004°18'0 0.0
2018-Apr-18 12:49N 51°20' E 004°18'0 0.0
2018-Apr-18 12:25N 51°20' E 004°18'0 0.0
2018-Apr-18 11:55N 51°20' E 004°18'0 0.0
2018-Apr-18 11:25N 51°20' E 004°18'0 0.0
2018-Apr-18 10:55N 51°20' E 004°18'0 0.0
2018-Apr-18 10:10N 51°20' E 004°18'0 0.0
2018-Apr-18 04:31N 51°20' E 004°18'0 0.0
2018-Apr-18 04:16N 51°20' E 004°18'0 0.0
2018-Apr-18 04:00N 51°20' E 004°18'1 1.2
2018-Apr-18 03:30N 51°20' E 004°18'1 1.7
2018-Apr-18 03:01N 51°21' E 004°17'0 0.0
2018-Apr-18 02:30N 51°21' E 004°17'2 3.1
2018-Apr-18 02:00N 51°21' E 004°15'4 7.1
2018-Apr-18 01:30N 51°24' E 004°11'510.3
2018-Apr-18 01:00N 51°23' E 004°03'4 7.5
2018-Apr-18 00:30N 51°24' E 003°57'713.3
2018-Apr-18 00:00N 51°21' E 003°48'612.6
2018-Apr-17 23:30N 51°26' E 003°42'510.2
2018-Apr-17 23:00N 51°27' E 003°34'713.2
2018-Apr-17 22:30N 51°31' E 003°26'611.8
2018-Apr-17 22:00N 51°36' E 003°22'612.5
2018-Apr-17 21:30N 51°41' E 003°15'510.1
2018-Apr-17 20:59N 51°46' E 003°19'1 1.2
2018-Apr-17 20:29N 51°47' E 003°19'0 0.0
2018-Apr-17 19:59N 51°47' E 003°19'0 0.1
2018-Apr-17 19:29N 51°47' E 003°19'0 0.2
2018-Apr-17 18:59N 51°47' E 003°19'0 0.1
2018-Apr-17 18:29N 51°47' E 003°19'0 0.0
2018-Apr-17 16:38N 51°47' E 003°19'0 0.0
2018-Apr-17 16:11N 51°47' E 003°19'0 0.0
2018-Apr-17 15:53N 51°47' E 003°19'0 0.0
2018-Apr-17 15:26N 51°47' E 003°19'0 0.0
2018-Apr-17 14:56N 51°47' E 003°19'0 0.0
2018-Apr-17 14:29N 51°47' E 003°19'0 0.0
2018-Apr-17 13:59N 51°47' E 003°19'0 0.0
2018-Apr-17 13:29N 51°47' E 003°19'0 0.0
2018-Apr-17 12:56N 51°47' E 003°19'0 0.2
2018-Apr-17 12:05N 51°47' E 003°19'0 0.1
2018-Apr-17 11:59N 51°46' E 003°19'0 0.0
2018-Apr-17 07:38N 51°47' E 003°19'0 0.1
2018-Apr-17 07:26N 51°47' E 003°19'0 0.1
2018-Apr-17 06:47N 51°47' E 003°19'0 0.1
2018-Apr-17 06:29N 51°47' E 003°19'0 0.0
2018-Apr-17 05:53N 51°47' E 003°19'0 0.0
2018-Apr-17 05:26N 51°47' E 003°19'0 0.1
2018-Apr-17 04:59N 51°47' E 003°19'0 0.0
2018-Apr-17 04:29N 51°47' E 003°19'0 0.0
2018-Apr-17 03:56N 51°47' E 003°19'0 0.0
2018-Apr-17 03:29N 51°47' E 003°19'0 0.0
2018-Apr-17 02:41N 51°47' E 003°19'0 0.0
2018-Apr-17 02:29N 51°47' E 003°19'0 0.0
2018-Apr-17 01:59N 51°47' E 003°19'0 0.0
2018-Apr-17 01:29N 51°47' E 003°19'0 0.1
2018-Apr-17 00:59N 51°47' E 003°19'0 0.0
2018-Apr-17 00:29N 51°47' E 003°19'0 0.2
2018-Apr-16 23:59N 51°47' E 003°19'0 0.2
2018-Apr-16 23:26N 51°46' E 003°19'0 0.0
2018-Apr-16 18:56N 51°47' E 003°19'0 0.1
2018-Apr-16 18:17N 51°47' E 003°19'0 0.0
2018-Apr-16 17:59N 51°47' E 003°19'0 0.0
2018-Apr-16 17:26N 51°47' E 003°19'0 0.0
2018-Apr-16 15:32N 51°47' E 003°19'0 0.0
2018-Apr-16 15:26N 51°47' E 003°19'0 0.0
2018-Apr-16 14:41N 51°47' E 003°19'0 0.0
2018-Apr-16 14:26N 51°47' E 003°19'0 0.0
2018-Apr-16 13:53N 51°47' E 003°19'0 0.0
2018-Apr-16 13:26N 51°47' E 003°19'0 0.0
2018-Apr-16 12:59N 51°47' E 003°19'0 0.0
2018-Apr-16 12:29N 51°47' E 003°19'0 0.0
2018-Apr-16 06:59N 51°47' E 003°19'0 0.1
2018-Apr-16 06:23N 51°47' E 003°19'0 0.0
2018-Apr-16 05:56N 51°47' E 003°19'0 0.0
2018-Apr-16 05:26N 51°47' E 003°19'0 0.0
2018-Apr-16 04:59N 51°47' E 003°19'0 0.0
2018-Apr-16 03:38N 51°47' E 003°19'0 0.0
2018-Apr-16 03:23N 51°47' E 003°19'0 0.0
2018-Apr-16 01:41N 51°47' E 003°19'0 0.0
2018-Apr-16 01:14N 51°47' E 003°19'0 0.0
2018-Apr-16 00:47N 51°47' E 003°19'0 0.0
2018-Apr-16 00:26N 51°47' E 003°19'0 0.2
2018-Apr-15 22:53N 51°47' E 003°19'0 0.0
2018-Apr-15 20:53N 51°46' E 003°19'0 0.0
2018-Apr-15 19:29N 51°47' E 003°19'0 0.0
2018-Apr-15 18:35N 51°47' E 003°19'0 0.1
2018-Apr-15 18:11N 51°47' E 003°19'0 0.0
2018-Apr-15 17:41N 51°47' E 003°19'0 0.1
2018-Apr-15 17:29N 51°47' E 003°19'0 0.1
2018-Apr-15 16:47N 51°47' E 003°19'0 0.1
2018-Apr-15 15:13N 51°47' E 003°19'0 0.0
2018-Apr-15 15:00N 51°47' E 003°19'0 0.0
2018-Apr-15 14:28N 51°47' E 003°19'0 0.0
2018-Apr-15 13:59N 51°47' E 003°19'0 0.0
2018-Apr-15 13:29N 51°47' E 003°19'0 0.0
2018-Apr-15 12:59N 51°47' E 003°19'0 0.0
2018-Apr-15 12:29N 51°47' E 003°19'0 0.0
2018-Apr-15 11:59N 51°47' E 003°19'0 0.1
2018-Apr-15 11:26N 51°47' E 003°19'0 0.3
2018-Apr-15 10:59N 51°47' E 003°19'0 0.1
2018-Apr-15 10:29N 51°46' E 003°19'0 0.0
2018-Apr-15 09:56N 51°46' E 003°19'0 0.0
2018-Apr-15 09:23N 51°46' E 003°19'0 0.0
2018-Apr-15 08:35N 51°46' E 003°19'0 0.0
2018-Apr-15 08:29N 51°46' E 003°19'0 0.0
2018-Apr-15 07:56N 51°47' E 003°19'0 0.0
2018-Apr-15 06:50N 51°47' E 003°19'0 0.0
2018-Apr-15 06:27N 51°47' E 003°19'0 0.1
2018-Apr-15 05:59N 51°47' E 003°19'0 0.1
2018-Apr-15 04:59N 51°47' E 003°19'0 0.1
2018-Apr-15 04:26N 51°47' E 003°19'0 0.1
2018-Apr-15 03:59N 51°47' E 003°19'0 0.1
2018-Apr-15 03:29N 51°47' E 003°19'0 0.0
2018-Apr-15 02:44N 51°47' E 003°19'0 0.0
2018-Apr-15 02:29N 51°47' E 003°19'0 0.0
2018-Apr-15 01:59N 51°47' E 003°19'0 0.0
2018-Apr-15 01:29N 51°47' E 003°19'0 0.0
2018-Apr-15 00:50N 51°47' E 003°19'0 0.0
2018-Apr-15 00:29N 51°47' E 003°19'0 0.1
2018-Apr-14 23:56N 51°47' E 003°19'0 0.3
2018-Apr-14 23:23N 51°46' E 003°19'0 0.1
2018-Apr-14 21:56N 51°46' E 003°19'0 0.0
2018-Apr-14 21:26N 51°46' E 003°19'0 0.0
2018-Apr-14 18:47N 51°46' E 003°19'0 0.0
2018-Apr-14 18:29N 51°46' E 003°19'0 0.0
2018-Apr-14 17:56N 51°46' E 003°19'0 0.0
2018-Apr-14 17:26N 51°46' E 003°19'0 0.1
2018-Apr-14 15:56N 51°47' E 003°19'0 0.1
2018-Apr-14 15:20N 51°47' E 003°19'0 0.0
2018-Apr-14 14:53N 51°47' E 003°19'0 0.0
2018-Apr-14 13:41N 51°47' E 003°19'0 0.0
2018-Apr-14 13:11N 51°47' E 003°19'0 0.0
2018-Apr-14 12:53N 51°47' E 003°19'0 0.0
2018-Apr-14 12:11N 51°47' E 003°19'0 0.0
2018-Apr-14 11:56N 51°47' E 003°19'0 0.1
2018-Apr-14 11:29N 51°47' E 003°19'0 0.1
2018-Apr-14 10:53N 51°47' E 003°19'0 0.1
2018-Apr-14 08:29N 51°46' E 003°19'0 0.0
2018-Apr-14 07:59N 51°46' E 003°19'0 0.0
2018-Apr-14 07:29N 51°46' E 003°19'0 0.0
2018-Apr-14 06:53N 51°46' E 003°19'0 0.0
2018-Apr-14 06:11N 51°46' E 003°19'0 0.0
2018-Apr-14 05:44N 51°46' E 003°19'0 0.0
2018-Apr-14 05:08N 51°46' E 003°19'0 0.3
2018-Apr-14 04:47N 51°47' E 003°19'0 0.1
2018-Apr-14 03:53N 51°47' E 003°19'0 0.0
2018-Apr-14 03:23N 51°47' E 003°19'0 0.0
2018-Apr-14 02:59N 51°47' E 003°19'0 0.0
2018-Apr-14 02:26N 51°47' E 003°19'0 0.0
2018-Apr-14 01:59N 51°47' E 003°19'0 0.0
2018-Apr-14 00:32N 51°47' E 003°19'0 0.0
2018-Apr-14 00:14N 51°47' E 003°19'0 0.0
2018-Apr-13 23:59N 51°47' E 003°19'0 0.0
2018-Apr-13 23:29N 51°47' E 003°19'0 0.0
2018-Apr-13 22:56N 51°47' E 003°19'0 0.1
2018-Apr-13 21:20N 51°46' E 003°19'0 0.1
2018-Apr-13 20:35N 51°46' E 003°19'0 0.0
2018-Apr-13 20:05N 51°46' E 003°19'0 0.0
2018-Apr-13 19:53N 51°46' E 003°19'0 0.0
2018-Apr-13 19:17N 51°46' E 003°19'0 0.0
2018-Apr-13 18:56N 51°46' E 003°19'0 0.0
2018-Apr-13 18:27N 51°46' E 003°19'0 0.0
2018-Apr-13 18:00N 51°46' E 003°19'1 1.4
2018-Apr-13 17:26N 51°46' E 003°18'3 6.6
2018-Apr-13 16:59N 51°43' E 003°17'612.2
2018-Apr-13 16:30N 51°38' E 003°21'713.4
2018-Apr-13 16:00N 51°32' E 003°26'713.4
2018-Apr-13 15:30N 51°27' E 003°33'4 8.5
2018-Apr-13 15:01N 51°27' E 003°40'713.3
2018-Apr-13 14:31N 51°21' E 003°47'713.2
2018-Apr-13 14:00N 51°23' E 003°57'4 7.1
2018-Apr-13 13:30N 51°24' E 004°02'5 9.4
2018-Apr-13 13:00N 51°23' E 004°09'4 8.3
2018-Apr-13 12:30N 51°21' E 004°15'1 2.5
2018-Apr-13 12:00N 51°21' E 004°17'0 0.0
2018-Apr-13 11:30N 51°21' E 004°17'0 0.0
2018-Apr-13 11:00N 51°21' E 004°17'1 1.1
2018-Apr-13 10:30N 51°20' E 004°18'3 6.1
2018-Apr-13 10:00N 51°18' E 004°20'0 0.0
2018-Apr-13 00:15N 51°18' E 004°20'0 0.0
2018-Apr-12 21:03N 51°18' E 004°20'0 0.0
2018-Apr-12 18:24N 51°18' E 004°20'  

Dump ship's entire track history